createdAt,value
2023-04-10T00:00:49.067Z,99887.16
2023-04-10T00:03:18.300Z,99888.91
2023-04-10T00:05:47.651Z,99889.97
2023-04-10T00:08:17.597Z,99888.97
2023-04-10T00:10:46.516Z,99891.78
2023-04-10T00:13:16.032Z,99886.66
2023-04-10T00:15:44.972Z,99887.69
2023-04-10T00:18:15.620Z,99879.91
2023-04-10T00:20:44.773Z,99885.63
2023-04-10T00:23:13.693Z,99874.28
2023-04-10T00:25:42.611Z,99867.38
2023-04-10T00:28:11.590Z,99879.41
2023-04-10T00:30:40.759Z,99872.50
2023-04-10T00:33:09.540Z,99871.09
2023-04-10T00:35:40.130Z,99866.50
2023-04-10T00:38:08.968Z,99872.44
2023-04-10T00:40:37.738Z,99862.72
2023-04-10T00:43:06.816Z,99862.91
2023-04-10T00:45:35.734Z,99866.88
2023-04-10T00:48:05.806Z,99862.16
2023-04-10T00:50:34.684Z,99862.84
2023-04-10T00:53:05.094Z,99859.94
2023-04-10T00:55:34.373Z,99864.41
2023-04-10T00:58:03.602Z,99859.66
2023-04-10T01:00:32.297Z,99859.81
2023-04-10T01:03:01.778Z,99862.28
2023-04-10T01:05:40.601Z,99857.66
2023-04-10T01:08:24.451Z,99867.72
2023-04-10T01:11:11.420Z,99865.25
2023-04-10T01:13:49.726Z,99865.47
2023-04-10T01:16:28.031Z,99864.75
2023-04-10T01:19:08.352Z,99866.03
2023-04-10T01:21:42.750Z,99865.16
2023-04-10T01:24:47.975Z,99868.13
2023-04-10T01:27:37.195Z,99875.06
2023-04-10T01:30:13.337Z,99874.81
2023-04-10T01:32:45.070Z,99874.72
2023-04-10T01:35:17.409Z,99872.06
2023-04-10T01:37:51.916Z,99874.88
2023-04-10T01:40:23.019Z,99877.69
2023-04-10T01:42:56.925Z,99877.19
2023-04-10T01:45:34.972Z,99871.22
2023-04-10T01:48:05.791Z,99875.81
2023-04-10T01:50:37.100Z,99873.00
2023-04-10T01:53:08.927Z,99872.03
2023-04-10T01:55:40.233Z,99875.66
2023-04-10T01:58:12.359Z,99871.81
2023-04-10T02:00:46.516Z,99869.00
2023-04-10T02:03:16.893Z,99868.84
2023-04-10T02:06:02.492Z,99868.88
2023-04-10T02:08:41.274Z,99861.16
2023-04-10T02:11:17.191Z,99860.31
2023-04-10T02:13:48.071Z,99851.88
2023-04-10T02:16:23.240Z,99850.66
2023-04-10T02:18:54.059Z,99849.84
2023-04-10T02:21:23.117Z,99852.28
2023-04-10T02:23:52.564Z,99850.59
2023-04-10T02:26:22.553Z,99841.69
2023-04-10T02:28:51.313Z,99848.16
2023-04-10T02:31:21.671Z,99844.00
2023-04-10T02:33:50.409Z,99848.31
2023-04-10T02:36:19.097Z,99846.22
2023-04-10T02:38:47.938Z,99842.91
2023-04-10T02:41:17.122Z,99840.78
2023-04-10T02:43:46.177Z,99837.44
2023-04-10T02:46:15.363Z,99840.06
2023-04-10T02:48:45.612Z,99839.25
2023-04-10T02:51:14.416Z,99841.56
2023-04-10T02:53:43.152Z,99844.41
2023-04-10T02:56:14.191Z,99833.19
2023-04-10T02:58:46.246Z,99840.97
2023-04-10T03:01:16.273Z,99839.16
2023-04-10T03:03:48.780Z,99836.50
2023-04-10T03:06:27.442Z,99846.78
2023-04-10T03:08:59.909Z,99843.44
2023-04-10T03:11:30.674Z,99846.78
2023-04-10T03:14:00.445Z,99847.78
2023-04-10T03:16:29.252Z,99844.28
2023-04-10T03:18:59.781Z,99849.56
2023-04-10T03:21:28.782Z,99845.75
2023-04-10T03:23:58.682Z,99854.66
2023-04-10T03:26:27.896Z,99850.38
2023-04-10T03:28:56.620Z,99845.44
2023-04-10T03:31:25.462Z,99848.25
2023-04-10T03:33:57.425Z,99844.47
2023-04-10T03:36:28.639Z,99851.06
2023-04-10T03:38:57.311Z,99848.75
2023-04-10T03:41:26.510Z,99845.75
2023-04-10T03:43:56.141Z,99843.44
2023-04-10T03:46:25.960Z,99849.09
2023-04-10T03:48:55.351Z,99847.59
2023-04-10T03:51:24.906Z,99843.13
2023-04-10T03:53:56.075Z,99848.75
2023-04-10T03:56:25.016Z,99852.72
2023-04-10T03:58:53.753Z,99847.75
2023-04-10T04:01:23.164Z,99857.69
2023-04-10T04:04:01.708Z,99859.00
2023-04-10T04:07:10.208Z,99854.72
2023-04-10T04:10:03.442Z,99853.38
2023-04-10T04:12:58.152Z,99863.00
2023-04-10T04:15:49.894Z,99864.78
2023-04-10T04:18:26.489Z,99871.06
2023-04-10T04:21:11.681Z,99862.63
2023-04-10T04:24:00.729Z,99865.06
2023-04-10T04:26:52.365Z,99872.53
2023-04-10T04:29:44.398Z,99872.22
2023-04-10T04:32:27.139Z,99872.53
2023-04-10T04:35:01.670Z,99875.50
2023-04-10T04:37:50.395Z,99869.97
2023-04-10T04:40:39.735Z,99874.47
2023-04-10T04:43:24.783Z,99871.13
2023-04-10T04:46:20.712Z,99876.97
2023-04-10T04:49:13.229Z,99873.84
2023-04-10T04:52:15.585Z,99874.03
2023-04-10T04:55:06.328Z,99871.22
2023-04-10T04:57:55.764Z,99872.06
2023-04-10T05:00:43.414Z,99873.84
2023-04-10T05:03:41.902Z,99873.81
2023-04-10T05:06:36.424Z,99870.81
2023-04-10T05:09:16.285Z,99866.81
2023-04-10T05:11:56.399Z,99867.88
2023-04-10T05:14:43.397Z,99863.25
2023-04-10T05:17:30.561Z,99868.69
2023-04-10T05:20:21.179Z,99877.63
2023-04-10T05:23:07.191Z,99869.97
2023-04-10T05:25:57.327Z,99879.06
2023-04-10T05:28:44.665Z,99880.41
2023-04-10T05:31:41.628Z,99884.38
2023-04-10T05:34:17.639Z,99880.91
2023-04-10T05:37:05.332Z,99876.75
2023-04-10T05:40:01.431Z,99874.69
2023-04-10T05:42:57.740Z,99870.97
2023-04-10T05:45:46.894Z,99872.88
2023-04-10T05:48:28.914Z,99879.72
2023-04-10T05:51:17.745Z,99876.94
2023-04-10T05:54:10.340Z,99866.06
2023-04-10T05:56:49.177Z,99872.28
2023-04-10T05:59:47.556Z,99870.94
2023-04-10T06:02:27.801Z,99865.06
2023-04-10T06:04:57.894Z,99869.66
2023-04-10T06:07:28.874Z,99867.94
2023-04-10T06:09:58.574Z,99874.53
2023-04-10T06:12:27.421Z,99871.59
2023-04-10T06:14:59.946Z,99864.38
2023-04-10T06:17:31.267Z,99863.69
2023-04-10T06:20:04.765Z,99863.88
2023-04-10T06:22:34.901Z,99857.75
2023-04-10T06:25:03.756Z,99856.69
2023-04-10T06:27:36.261Z,99859.91
2023-04-10T06:30:09.502Z,99851.22
2023-04-10T06:35:28.191Z,99855.75
2023-04-10T06:37:58.464Z,99850.03
2023-04-10T06:40:31.409Z,99840.44
2023-04-10T06:43:00.544Z,99847.16
2023-04-10T06:45:35.602Z,99853.66
2023-04-10T06:48:07.130Z,99850.53
2023-04-10T06:50:35.933Z,99848.41
2023-04-10T06:53:06.131Z,99842.78
2023-04-10T06:55:35.004Z,99837.38
2023-04-10T06:58:03.839Z,99835.06
2023-04-10T07:00:32.860Z,99840.06
2023-04-10T07:03:02.101Z,99841.59
2023-04-10T07:05:32.532Z,99839.44
2023-04-10T07:08:02.662Z,99830.13
2023-04-10T07:10:33.169Z,99831.44
2023-04-10T07:13:03.609Z,99833.78
2023-04-10T07:15:33.685Z,99825.66
2023-04-10T07:18:02.541Z,99824.09
2023-04-10T07:20:32.347Z,99823.59
2023-04-10T07:23:01.091Z,99825.88
2023-04-10T07:25:32.773Z,99816.53
2023-04-10T07:28:04.662Z,99809.00
2023-04-10T07:30:34.110Z,99818.09
2023-04-10T07:33:04.487Z,99801.72
2023-04-10T07:35:34.121Z,99804.22
2023-04-10T07:38:04.946Z,99806.13
2023-04-10T07:40:35.942Z,99805.19
2023-04-10T07:43:05.222Z,99799.06
2023-04-10T07:45:34.877Z,99796.22
2023-04-10T07:48:06.601Z,99798.69
2023-04-10T07:50:36.387Z,99796.47
2023-04-10T07:53:24.659Z,99795.25
2023-04-10T07:55:55.160Z,99802.84
2023-04-10T07:58:24.508Z,99790.94
2023-04-10T08:00:53.779Z,99792.56
2023-04-10T08:03:24.565Z,99790.47
2023-04-10T08:05:54.889Z,99797.47
2023-04-10T08:08:23.745Z,99792.09
2023-04-10T08:10:52.494Z,99794.31
2023-04-10T08:13:28.791Z,99788.28
2023-04-10T08:19:04.384Z,99780.81
2023-04-10T08:21:35.488Z,99780.56
2023-04-10T08:24:06.337Z,99784.03
2023-04-10T08:26:40.737Z,99780.66
2023-04-10T08:29:15.111Z,99775.22
2023-04-10T08:31:49.545Z,99770.44
2023-04-10T08:34:20.738Z,99773.81
2023-04-10T08:36:51.200Z,99766.38
2023-04-10T08:39:20.819Z,99769.13
2023-04-10T08:41:50.380Z,99771.81
2023-04-10T08:44:21.347Z,99771.75
2023-04-10T08:46:55.191Z,99762.47
2023-04-10T08:49:42.706Z,99766.97
2023-04-10T08:52:19.341Z,99768.56
2023-04-10T08:54:52.375Z,99760.53
2023-04-10T08:57:22.430Z,99758.50
2023-04-10T08:59:53.625Z,99758.47
2023-04-10T09:02:24.504Z,99755.03
2023-04-10T09:04:56.884Z,99759.63
2023-04-10T09:07:28.137Z,99746.56
2023-04-10T09:09:58.561Z,99741.53
2023-04-10T09:12:27.358Z,99745.53
2023-04-10T09:14:58.795Z,99748.59
2023-04-10T09:17:27.756Z,99741.44
2023-04-10T09:19:58.046Z,99735.31
2023-04-10T09:22:32.687Z,99737.41
2023-04-10T09:25:04.741Z,99735.66
2023-04-10T09:27:38.045Z,99729.69
2023-04-10T09:30:13.618Z,99725.34
2023-04-10T09:32:47.861Z,99724.50
2023-04-10T09:35:19.336Z,99729.41
2023-04-10T09:37:48.490Z,99725.19
2023-04-10T09:40:25.548Z,99715.34
2023-04-10T09:42:57.881Z,99721.63
2023-04-10T09:45:28.066Z,99713.78
2023-04-10T09:48:06.872Z,99704.13
2023-04-10T09:50:39.945Z,99705.06
2023-04-10T09:53:10.797Z,99701.56
2023-04-10T09:55:41.923Z,99692.38
2023-04-10T09:58:12.582Z,99688.41
2023-04-10T10:00:46.818Z,99684.00
2023-04-10T10:03:17.407Z,99681.03
2023-04-10T10:05:51.156Z,99678.50
2023-04-10T10:08:20.149Z,99678.34
2023-04-10T10:10:52.712Z,99674.63
2023-04-10T10:13:29.554Z,99668.13
2023-04-10T10:16:14.836Z,99671.03
2023-04-10T10:18:50.465Z,99658.72
2023-04-10T10:21:23.250Z,99660.53
2023-04-10T10:23:55.112Z,99653.59
2023-04-10T10:26:25.427Z,99652.78
2023-04-10T10:28:55.441Z,99649.19
2023-04-10T10:31:32.749Z,99644.72
2023-04-10T10:34:05.340Z,99641.34
2023-04-10T10:36:36.412Z,99633.75
2023-04-10T10:39:35.656Z,99628.28
2023-04-10T10:42:20.175Z,99629.91
2023-04-10T10:45:02.821Z,99618.41
2023-04-10T10:47:39.619Z,99622.38
2023-04-10T10:50:09.278Z,99618.91
2023-04-10T10:52:45.371Z,99615.56
2023-04-10T10:55:41.339Z,99599.44
2023-04-10T10:58:11.380Z,99590.03
2023-04-10T11:01:21.770Z,99591.59
2023-04-10T11:03:53.112Z,99584.16
2023-04-10T11:06:23.588Z,99581.63
2023-04-10T11:08:57.889Z,99574.97
2023-04-10T11:11:28.286Z,99570.78
2023-04-10T11:14:21.900Z,99572.13
2023-04-10T11:16:51.240Z,99564.81
2023-04-10T11:19:25.571Z,99563.94
2023-04-10T11:22:10.998Z,99566.13
2023-04-10T11:25:10.811Z,99555.16
2023-04-10T11:27:48.830Z,99548.47
2023-04-10T11:30:36.105Z,99541.94
2023-04-10T11:33:07.612Z,99529.41
2023-04-10T11:35:38.484Z,99526.09
2023-04-10T11:38:16.174Z,99534.19
2023-04-10T11:41:06.356Z,99524.69
2023-04-10T11:43:36.240Z,99534.19
2023-04-10T11:46:09.393Z,99522.69
2023-04-10T11:48:44.715Z,99526.59
2023-04-10T11:51:16.492Z,99514.91
2023-04-10T11:53:46.345Z,99523.78
2023-04-10T11:56:22.529Z,99511.03
2023-04-10T11:58:55.253Z,99511.41
2023-04-10T12:01:25.629Z,99502.09
2023-04-10T12:03:56.215Z,99499.84
2023-04-10T12:06:27.741Z,99499.75
2023-04-10T12:08:57.174Z,99484.06
2023-04-10T12:11:28.938Z,99485.22
2023-04-10T12:13:59.253Z,99485.09
2023-04-10T12:16:28.479Z,99490.31
2023-04-10T12:18:58.868Z,99486.47
2023-04-10T12:21:31.248Z,99487.56
2023-04-10T12:24:01.426Z,99485.88
2023-04-10T12:26:30.234Z,99480.94
2023-04-10T12:29:01.325Z,99476.84
2023-04-10T12:31:33.047Z,99478.81
2023-04-10T12:34:05.763Z,99480.69
2023-04-10T12:36:36.157Z,99473.47
2023-04-10T12:39:22.942Z,99471.63
2023-04-10T12:41:52.085Z,99466.78
2023-04-10T12:44:21.878Z,99465.13
2023-04-10T12:46:50.720Z,99465.91
2023-04-10T12:49:20.418Z,99465.59
2023-04-10T12:51:52.516Z,99464.91
2023-04-10T12:55:02.413Z,99468.25
2023-04-10T12:57:33.317Z,99457.47
2023-04-10T13:00:03.478Z,99458.22
2023-04-10T13:02:38.891Z,99455.34
2023-04-10T13:05:10.526Z,99455.50
2023-04-10T13:07:43.964Z,99454.56
2023-04-10T13:10:12.890Z,99453.91
2023-04-10T13:12:43.839Z,99438.47
2023-04-10T13:15:12.932Z,99435.59
2023-04-10T13:17:42.351Z,99429.78
2023-04-10T13:20:13.611Z,99422.16
2023-04-10T13:22:43.678Z,99417.53
2023-04-10T13:25:12.319Z,99418.53
2023-04-10T13:27:41.120Z,99416.78
2023-04-10T13:30:11.029Z,99414.84
2023-04-10T13:32:39.742Z,99409.19
2023-04-10T13:35:10.669Z,99409.97
2023-04-10T13:37:39.626Z,99393.25
2023-04-10T13:40:11.764Z,99383.16
2023-04-10T13:42:53.914Z,99385.69
2023-04-10T13:45:23.530Z,99380.69
2023-04-10T13:47:52.959Z,99374.28
2023-04-10T13:50:22.924Z,99368.91
2023-04-10T13:52:53.766Z,99367.16
2023-04-10T13:55:24.357Z,99365.56
2023-04-10T13:57:57.143Z,99351.22
2023-04-10T14:00:26.980Z,99352.44
2023-04-10T14:02:55.914Z,99346.88
2023-04-10T14:05:24.868Z,99350.41
2023-04-10T14:07:57.765Z,99341.38
2023-04-10T14:10:31.838Z,99346.38
2023-04-10T14:13:11.683Z,99334.28
2023-04-10T14:15:44.116Z,99349.34
2023-04-10T14:18:14.932Z,99336.63
2023-04-10T14:20:43.670Z,99326.22
2023-04-10T14:23:18.538Z,99325.25
2023-04-10T14:25:52.557Z,99328.34
2023-04-10T14:28:21.516Z,99327.38
2023-04-10T14:30:54.254Z,99327.13
2023-04-10T14:33:33.309Z,99324.56
2023-04-10T14:36:08.146Z,99317.31
2023-04-10T14:38:38.019Z,99317.09
2023-04-10T14:41:10.979Z,99320.84
2023-04-10T14:43:40.350Z,99303.28
2023-04-10T14:46:09.312Z,99312.81
2023-04-10T14:48:39.279Z,99306.22
2023-04-10T14:51:12.985Z,99301.69
2023-04-10T14:53:42.061Z,99303.00
2023-04-10T14:56:17.311Z,99297.19
2023-04-10T14:58:50.667Z,99294.03
2023-04-10T15:01:39.860Z,99296.34
2023-04-10T15:04:09.754Z,99288.53
2023-04-10T15:06:44.518Z,99287.34
2023-04-10T15:09:14.491Z,99279.53
2023-04-10T15:11:48.355Z,99273.53
2023-04-10T15:14:19.191Z,99270.06
2023-04-10T15:16:48.460Z,99266.84
2023-04-10T15:19:18.346Z,99268.97
2023-04-10T15:21:51.251Z,99265.69
2023-04-10T15:24:21.288Z,99255.97
2023-04-10T15:26:53.695Z,99254.41
2023-04-10T15:29:22.891Z,99256.19
2023-04-10T15:31:52.759Z,99254.97
2023-04-10T15:34:30.865Z,99247.09
2023-04-10T15:36:59.812Z,99246.16
2023-04-10T15:39:30.931Z,99249.41
2023-04-10T15:42:04.293Z,99242.16
2023-04-10T15:44:34.942Z,99233.25
2023-04-10T15:47:06.094Z,99234.38
2023-04-10T15:49:38.415Z,99236.81
2023-04-10T15:52:36.421Z,99232.78
2023-04-10T15:55:14.702Z,99230.69
2023-04-10T15:57:46.028Z,99222.59
2023-04-10T16:00:18.474Z,99218.50
2023-04-10T16:02:47.976Z,99211.97
2023-04-10T16:05:19.449Z,99210.00
2023-04-10T16:07:49.484Z,99212.50
2023-04-10T16:10:19.112Z,99207.56
2023-04-10T16:12:51.046Z,99202.69
2023-04-10T16:15:20.461Z,99193.72
2023-04-10T16:17:49.357Z,99194.31
2023-04-10T16:20:20.195Z,99196.03
2023-04-10T16:22:50.053Z,99193.84
2023-04-10T16:25:21.727Z,99188.44
2023-04-10T16:27:59.108Z,99185.22
2023-04-10T16:30:28.220Z,99185.22
2023-04-10T16:32:59.132Z,99193.34
2023-04-10T16:35:31.809Z,99190.13
2023-04-10T16:38:03.030Z,99183.38
2023-04-10T16:40:33.313Z,99181.50
2023-04-10T16:43:05.948Z,99175.84
2023-04-10T16:45:41.269Z,99172.03
2023-04-10T16:48:13.591Z,99167.19
2023-04-10T16:50:42.456Z,99169.09
2023-04-10T16:53:11.683Z,99166.38
2023-04-10T16:55:41.282Z,99160.44
2023-04-10T16:58:12.289Z,99158.81
2023-04-10T17:00:43.481Z,99151.53
2023-04-10T17:03:13.561Z,99154.47
2023-04-10T17:05:44.684Z,99149.63
2023-04-10T17:08:13.615Z,99149.09
2023-04-10T17:10:42.685Z,99144.72
2023-04-10T17:13:13.940Z,99138.50
2023-04-10T17:15:42.752Z,99143.66
2023-04-10T17:18:14.751Z,99139.84
2023-04-10T17:20:47.744Z,99130.66
2023-04-10T17:23:18.565Z,99136.59
2023-04-10T17:25:48.782Z,99139.28
2023-04-10T17:28:19.245Z,99140.34
2023-04-10T17:30:48.443Z,99133.56
2023-04-10T17:33:24.957Z,99133.81
2023-04-10T17:35:53.971Z,99131.34
2023-04-10T17:38:22.867Z,99131.88
2023-04-10T17:40:51.713Z,99127.25
2023-04-10T17:43:26.347Z,99125.88
2023-04-10T17:46:00.868Z,99132.69
2023-04-10T17:48:39.861Z,99123.75
2023-04-10T17:51:12.726Z,99129.13
2023-04-10T17:53:58.558Z,99121.75
2023-04-10T17:56:30.683Z,99117.31
2023-04-10T17:59:00.965Z,99111.34
2023-04-10T18:01:31.219Z,99111.09
2023-04-10T18:04:00.263Z,99114.94
2023-04-10T18:06:29.246Z,99106.63
2023-04-10T18:08:58.122Z,99110.69
2023-04-10T18:11:27.379Z,99114.31
2023-04-10T18:13:56.152Z,99107.84
2023-04-10T18:16:26.399Z,99111.28
2023-04-10T18:18:55.629Z,99107.31
2023-04-10T18:21:25.546Z,99104.81
2023-04-10T18:23:55.767Z,99096.63
2023-04-10T18:26:24.655Z,99095.94
2023-04-10T18:28:53.784Z,99095.56
2023-04-10T18:31:25.667Z,99088.19
2023-04-10T18:34:06.333Z,99092.81
2023-04-10T18:36:38.026Z,99098.53
2023-04-10T18:39:07.867Z,99088.41
2023-04-10T18:41:38.368Z,99094.94
2023-04-10T18:44:09.433Z,99085.16
2023-04-10T18:46:42.736Z,99084.19
2023-04-10T18:49:19.885Z,99081.28
2023-04-10T18:51:48.752Z,99084.03
2023-04-10T18:54:19.557Z,99079.66
2023-04-10T18:56:52.472Z,99077.28
2023-04-10T18:59:23.961Z,99077.00
2023-04-10T19:01:56.819Z,99085.16
2023-04-10T19:04:27.235Z,99076.09
2023-04-10T19:06:58.231Z,99079.06
2023-04-10T19:09:28.807Z,99067.66
2023-04-10T19:12:15.809Z,99067.72
2023-04-10T19:14:46.509Z,99059.41
2023-04-10T19:17:28.478Z,99063.09
2023-04-10T19:20:00.374Z,99055.09
2023-04-10T19:22:39.824Z,99058.09
2023-04-10T19:25:24.844Z,99049.06
2023-04-10T19:28:40.873Z,99036.06
2023-04-10T19:32:03.542Z,99037.78
2023-04-10T19:34:32.280Z,99038.00
2023-04-10T19:37:12.387Z,99029.44
2023-04-10T19:39:47.421Z,99033.84
2023-04-10T19:42:39.067Z,99026.13
2023-04-10T19:45:31.903Z,99020.53
2023-04-10T19:48:34.421Z,99027.03
2023-04-10T19:51:08.540Z,99021.69
2023-04-10T19:53:43.444Z,99017.19
2023-04-10T19:56:14.416Z,99025.50
2023-04-10T19:58:46.941Z,99025.16
2023-04-10T20:01:19.579Z,99025.41
2023-04-10T20:04:05.807Z,99015.94
2023-04-10T20:07:09.579Z,99016.41
2023-04-10T20:09:50.589Z,99017.41
2023-04-10T20:12:21.168Z,99002.84
2023-04-10T20:14:54.927Z,99004.06
2023-04-10T20:17:27.961Z,99001.88
2023-04-10T20:19:58.641Z,98994.38
2023-04-10T20:22:59.454Z,98979.72
2023-04-10T20:25:43.374Z,98972.16
2023-04-10T20:28:41.766Z,98965.75
2023-04-10T20:32:28.280Z,98962.63
2023-04-10T20:35:10.381Z,98952.47
2023-04-10T20:38:09.800Z,98945.88
2023-04-10T20:40:44.727Z,98953.41
2023-04-10T20:43:42.709Z,98948.41
2023-04-10T20:49:35.362Z,98943.13
2023-04-10T20:52:21.866Z,98937.44
2023-04-10T20:55:15.035Z,98933.50
2023-04-10T20:58:15.298Z,98930.97
2023-04-10T21:01:10.277Z,98930.38
2023-04-10T21:03:55.500Z,98921.38
2023-04-10T21:06:49.599Z,98928.34
2023-04-10T21:09:43.410Z,98928.44
2023-04-10T21:12:20.066Z,98932.22
2023-04-10T21:15:09.778Z,98930.16
2023-04-10T21:17:46.325Z,98926.50
2023-04-10T21:20:36.303Z,98919.41
2023-04-10T21:23:13.624Z,98915.44
2023-04-10T21:25:56.942Z,98909.00
2023-04-10T21:28:50.502Z,98905.63
2023-04-10T21:31:32.102Z,98900.41
2023-04-10T21:34:08.153Z,98886.97
2023-04-10T21:36:38.975Z,98888.94
2023-04-10T21:39:13.562Z,98889.84
2023-04-10T21:41:49.405Z,98881.34
2023-04-10T21:44:41.061Z,98879.03
2023-04-10T21:47:10.927Z,98858.56
2023-04-10T21:49:43.033Z,98865.75
2023-04-10T21:52:17.212Z,98861.09
2023-04-10T21:54:49.497Z,98866.81
2023-04-10T21:57:33.684Z,98857.41
2023-04-10T22:00:17.260Z,98857.91
2023-04-10T22:02:47.469Z,98851.84
2023-04-10T22:05:17.933Z,98858.13
2023-04-10T22:08:06.457Z,98855.75
2023-04-10T22:10:35.815Z,98857.59
2023-04-10T22:13:04.625Z,98848.09
2023-04-10T22:15:35.737Z,98842.66
2023-04-10T22:18:08.466Z,98840.31
2023-04-10T22:20:40.305Z,98834.41
2023-04-10T22:23:14.202Z,98833.72
2023-04-10T22:25:44.536Z,98831.16
2023-04-10T22:28:17.246Z,98829.72
2023-04-10T22:31:01.202Z,98823.47
2023-04-10T22:33:33.796Z,98812.78
2023-04-10T22:36:07.751Z,98808.03
2023-04-10T22:38:41.979Z,98817.28
2023-04-10T22:41:18.335Z,98816.00
2023-04-10T22:43:56.032Z,98810.28
2023-04-10T22:46:33.364Z,98812.88
2023-04-10T22:49:02.370Z,98795.06
2023-04-10T22:51:31.534Z,98795.31
2023-04-10T22:54:00.381Z,98791.59
2023-04-10T22:56:29.524Z,98778.13
2023-04-10T22:58:58.223Z,98767.44
2023-04-10T23:01:26.933Z,98765.00
2023-04-10T23:03:58.454Z,98757.09
2023-04-10T23:06:27.555Z,98763.91
2023-04-10T23:08:58.646Z,98759.38
2023-04-10T23:11:27.598Z,98761.13
2023-04-10T23:13:56.394Z,98745.84
2023-04-10T23:16:25.281Z,98743.28
2023-04-10T23:18:54.342Z,98731.88
2023-04-10T23:21:24.714Z,98730.25
2023-04-10T23:23:53.519Z,98728.63
2023-04-10T23:26:22.480Z,98723.16
2023-04-10T23:28:51.264Z,98719.56
2023-04-10T23:31:20.042Z,98721.31
2023-04-10T23:33:48.825Z,98717.00
2023-04-10T23:36:17.750Z,98705.88
2023-04-10T23:38:47.897Z,98713.97
2023-04-10T23:41:16.628Z,98704.34
2023-04-10T23:43:46.033Z,98697.75
2023-04-10T23:46:14.821Z,98684.13
2023-04-10T23:48:43.646Z,98675.88
2023-04-10T23:51:13.451Z,98675.41
2023-04-10T23:53:42.152Z,98669.22
2023-04-10T23:56:12.483Z,98661.44
2023-04-10T23:58:41.133Z,98659.56
